Snow/Ice From: 16-12-2017 16:00 Until: 17-12-2017 16:00 warning for: Snow/Ice Level: Yellow info button

Although rather usual in this region, locally or potentially dangerous phenomena are expected. (such as local winds, summer thunderstorms, rising streams or high waves) Be aware and pay attention to the latest weather updates, especially if you carry out activities exposed to weather or close to a stream or shoreline. 


Meteo18 Weather Cam more information Meteo18 Weather Cam


Thunder radar more information blitzortung!


warning for Snow/Ice more information rain snow radar


Visit our other weather sites:

Template documentation
and downloads

And another site



Weather Underground History page Text

Daily Summary for June 3, 2017 Units:  Both    English   Metric
« Previous Day
Next Day »
Daily Weekly Monthly Yearly Custom
  High: Low: Average:
Temperature: 69.4 °F /  20.8 °C 57.7 °F /  14.3 °C 63.3 °F /  17.4 °C
Dew Point: 63.3 °F /  17.4 °C 55.9 °F /  13.3 °C 60.1 °F /  15.6 °C
Humidity: 96 % 75 % 90 %
Wind Speed: 9 mph /  14.5 km/h - 1.9 mph /  3 km/h
Wind Gust: 15 mph /  24.1 km/h - -
Wind:- - WSW
Pressure: 30.1 in /  1018.2 hPa 30 in /  1015.1 hPa -
Precipitation: 0.37 in /  9.4 mm    
Historical Graphs
 
 
Tabular Data for June 3, 2017
Time Temperature Dew Point Pressure Wind Wind Speed Wind Gust Humidity Rainfall Rate (Hourly)
00:02 65.8 °F /  18.8 °C 60.8 °F /  16.0 °C 30 in /  1016.5 hPa Calm   2 mph /  3.2 km/h 84 % 0 in /  0.0 mm
00:07 65.8 °F /  18.8 °C 61.2 °F /  16.2 °C 30 in /  1016.5 hPa Calm   2 mph /  3.2 km/h 85 % 0 in /  0.0 mm
00:12 65.7 °F /  18.7 °C 61 °F /  16.1 °C 30 in /  1016.5 hPa Calm   2 mph /  3.2 km/h 85 % 0 in /  0.0 mm
00:17 65.3 °F /  18.5 °C 61 °F /  16.1 °C 30 in /  1016.5 hPa Calm   1 mph /  1.6 km/h 86 % 0 in /  0.0 mm
00:22 65.1 °F /  18.4 °C 60.8 °F /  16.0 °C 30 in /  1016.5 hPa Calm   1 mph /  1.6 km/h 86 % 0 in /  0.0 mm
00:32 65.3 °F /  18.5 °C 61 °F /  16.1 °C 30 in /  1016.5 hPa Calm   1 mph /  1.6 km/h 86 % 0 in /  0.0 mm
00:37 65.1 °F /  18.4 °C 60.8 °F /  16.0 °C 30 in /  1016.5 hPa Calm     86 % 0 in /  0.0 mm
00:42 64.8 °F /  18.2 °C 60.4 °F /  15.8 °C 30 in /  1016.5 hPa Calm     86 % 0 in /  0.0 mm
00:47 64.6 °F /  18.1 °C 60.6 °F /  15.9 °C 30 in /  1016.5 hPa Calm     87 % 0 in /  0.0 mm
00:52 64.6 °F /  18.1 °C 61 °F /  16.1 °C 30 in /  1016.8 hPa WNW 1 mph /  1.6 km/h   88 % 0 in /  0.0 mm
00:57 64 °F /  17.8 °C 60.4 °F /  15.8 °C 30 in /  1016.8 hPa WNW 1 mph /  1.6 km/h 1 mph /  1.6 km/h 88 % 0 in /  0.0 mm
01:02 63.9 °F /  17.7 °C 60.6 °F /  15.9 °C 30 in /  1016.8 hPa WNW 1 mph /  1.6 km/h 1 mph /  1.6 km/h 89 % 0 in /  0.0 mm
01:07 63.7 °F /  17.6 °C 60.6 °F /  15.9 °C 30 in /  1016.8 hPa WNW 1 mph /  1.6 km/h 1 mph /  1.6 km/h 90 % 0 in /  0.0 mm
01:12 63.9 °F /  17.7 °C 60.8 °F /  16.0 °C 30 in /  1016.8 hPa Calm   1 mph /  1.6 km/h 90 % 0 in /  0.0 mm
01:17 63.9 °F /  17.7 °C 60.6 °F /  15.9 °C 30 in /  1016.5 hPa Calm   1 mph /  1.6 km/h 89 % 0 in /  0.0 mm
01:22 63.9 °F /  17.7 °C 60.6 °F /  15.9 °C 30 in /  1016.5 hPa Calm   1 mph /  1.6 km/h 89 % 0 in /  0.0 mm
01:27 63.7 °F /  17.6 °C 60.6 °F /  15.9 °C 30 in /  1016.1 hPa NNE 1 mph /  1.6 km/h 2 mph /  3.2 km/h 90 % 0 in /  0.0 mm
01:32 63.5 °F /  17.5 °C 60.4 °F /  15.8 °C 30 in /  1016.1 hPa Calm   2 mph /  3.2 km/h 90 % 0 in /  0.0 mm
01:37 63.5 °F /  17.5 °C 60.4 °F /  15.8 °C 30 in /  1016.1 hPa Calm   2 mph /  3.2 km/h 90 % 0 in /  0.0 mm
01:42 63.5 °F /  17.5 °C 60.4 °F /  15.8 °C 30 in /  1016.1 hPa Calm   2 mph /  3.2 km/h 90 % 0 in /  0.0 mm
01:47 63.3 °F /  17.4 °C 60.3 °F /  15.7 °C 30 in /  1016.1 hPa Calm   1 mph /  1.6 km/h 90 % 0 in /  0.0 mm
01:52 63.1 °F /  17.3 °C 60.1 °F /  15.6 °C 30 in /  1016.1 hPa Calm   1 mph /  1.6 km/h 90 % 0 in /  0.0 mm
01:57 63 °F /  17.2 °C 60.3 °F /  15.7 °C 30 in /  1016.1 hPa Calm   1 mph /  1.6 km/h 91 % 0 in /  0.0 mm
02:02 63 °F /  17.2 °C 60.3 °F /  15.7 °C 30 in /  1016.1 hPa WNW 1 mph /  1.6 km/h 1 mph /  1.6 km/h 91 % 0 in /  0.0 mm
02:07 63 °F /  17.2 °C 60.3 °F /  15.7 °C 30 in /  1016.1 hPa Calm   1 mph /  1.6 km/h 91 % 0 in /  0.0 mm
02:12 62.8 °F /  17.1 °C 60.1 °F /  15.6 °C 30 in /  1015.8 hPa Calm   1 mph /  1.6 km/h 91 % 0 in /  0.0 mm
02:17 62.8 °F /  17.1 °C 60.1 °F /  15.6 °C 30 in /  1015.8 hPa Calm   1 mph /  1.6 km/h 91 % 0 in /  0.0 mm
02:22 62.8 °F /  17.1 °C 60.1 °F /  15.6 °C 30 in /  1015.8 hPa Calm   1 mph /  1.6 km/h 91 % 0 in /  0.0 mm
02:27 62.6 °F /  17.0 °C 59.9 °F /  15.5 °C 30 in /  1015.8 hPa Calm     91 % 0 in /  0.0 mm
02:32 62.4 °F /  16.9 °C 60.1 °F /  15.6 °C 30 in /  1015.8 hPa WNW 1 mph /  1.6 km/h 1 mph /  1.6 km/h 92 % 0 in /  0.0 mm
02:37 62.2 °F /  16.8 °C 59.9 °F /  15.5 °C 30 in /  1015.8 hPa WNW 1 mph /  1.6 km/h 1 mph /  1.6 km/h 92 % 0 in /  0.0 mm
02:42 62.1 °F /  16.7 °C 59.7 °F /  15.4 °C 30 in /  1015.8 hPa Calm   1 mph /  1.6 km/h 92 % 0 in /  0.0 mm
02:47 62.1 °F /  16.7 °C 59.7 °F /  15.4 °C 30 in /  1015.8 hPa Calm   1 mph /  1.6 km/h 92 % 0 in /  0.0 mm
02:52 62.1 °F /  16.7 °C 59.7 °F /  15.4 °C 30 in /  1015.8 hPa Calm   1 mph /  1.6 km/h 92 % 0 in /  0.0 mm
02:57 62.1 °F /  16.7 °C 59.7 °F /  15.4 °C 30 in /  1015.8 hPa Calm   1 mph /  1.6 km/h 92 % 0 in /  0.0 mm
03:02 62.1 °F /  16.7 °C 59.7 °F /  15.4 °C 30 in /  1015.8 hPa Calm     92 % 0 in /  0.0 mm
03:07 62.1 °F /  16.7 °C 59.7 °F /  15.4 °C 30 in /  1015.8 hPa Calm     92 % 0 in /  0.0 mm
03:12 61.9 °F /  16.6 °C 59.5 °F /  15.3 °C 30 in /  1015.8 hPa Calm     92 % 0 in /  0.0 mm
03:17 61.5 °F /  16.4 °C 59.2 °F /  15.1 °C 30 in /  1015.8 hPa Calm     92 % 0 in /  0.0 mm
03:22 61.3 °F /  16.3 °C 59.4 °F /  15.2 °C 30 in /  1015.8 hPa Calm   1 mph /  1.6 km/h 93 % 0 in /  0.0 mm
03:27 61.2 °F /  16.2 °C 59.2 °F /  15.1 °C 30 in /  1015.8 hPa WNW 1 mph /  1.6 km/h 1 mph /  1.6 km/h 93 % 0 in /  0.0 mm
03:32 61.2 °F /  16.2 °C 59.2 °F /  15.1 °C 30 in /  1015.8 hPa WNW 1 mph /  1.6 km/h 2 mph /  3.2 km/h 93 % 0 in /  0.0 mm
03:37 61.2 °F /  16.2 °C 59.4 °F /  15.2 °C 30 in /  1015.8 hPa Calm   2 mph /  3.2 km/h 94 % 0 in /  0.0 mm
03:42 61.2 °F /  16.2 °C 59.4 °F /  15.2 °C 30 in /  1015.5 hPa WNW 2 mph /  3.2 km/h 2 mph /  3.2 km/h 94 % 0 in /  0.0 mm
03:47 61.2 °F /  16.2 °C 59.2 °F /  15.1 °C 30 in /  1015.8 hPa WNW 1 mph /  1.6 km/h 2 mph /  3.2 km/h 93 % 0 in /  0.0 mm
03:52 61 °F /  16.1 °C 59.2 °F /  15.1 °C 30 in /  1015.8 hPa Calm   2 mph /  3.2 km/h 94 % 0 in /  0.0 mm
03:57 61 °F /  16.1 °C 59.2 °F /  15.1 °C 30 in /  1015.8 hPa Calm   2 mph /  3.2 km/h 94 % 0 in /  0.0 mm
04:02 60.6 °F /  15.9 °C 58.8 °F /  14.9 °C 30 in /  1015.8 hPa Calm   1 mph /  1.6 km/h 94 % 0 in /  0.0 mm
04:07 60.6 °F /  15.9 °C 58.8 °F /  14.9 °C 30 in /  1015.8 hPa WNW 1 mph /  1.6 km/h 2 mph /  3.2 km/h 94 % 0 in /  0.0 mm
04:12 60.6 °F /  15.9 °C 58.8 °F /  14.9 °C 30 in /  1015.8 hPa WNW 1 mph /  1.6 km/h 2 mph /  3.2 km/h 94 % 0 in /  0.0 mm
04:17 60.6 °F /  15.9 °C 58.8 °F /  14.9 °C 30 in /  1015.5 hPa Calm   2 mph /  3.2 km/h 94 % 0 in /  0.0 mm
04:22 60.8 °F /  16.0 °C 59 °F /  15.0 °C 30 in /  1015.5 hPa Calm   2 mph /  3.2 km/h 94 % 0 in /  0.0 mm
04:27 61 °F /  16.1 °C 59.2 °F /  15.1 °C 30 in /  1015.5 hPa Calm   2 mph /  3.2 km/h 94 % 0 in /  0.0 mm
04:32 61.2 °F /  16.2 °C 59.4 °F /  15.2 °C 30 in /  1015.5 hPa Calm   1 mph /  1.6 km/h 94 % 0 in /  0.0 mm
04:37 61.2 °F /  16.2 °C 59.4 °F /  15.2 °C 30 in /  1015.5 hPa Calm   1 mph /  1.6 km/h 94 % 0 in /  0.0 mm
04:42 61 °F /  16.1 °C 59.2 °F /  15.1 °C 30 in /  1015.5 hPa Calm   1 mph /  1.6 km/h 94 % 0 in /  0.0 mm
04:47 61.2 °F /  16.2 °C 59.4 °F /  15.2 °C 30 in /  1015.5 hPa Calm     94 % 0 in /  0.0 mm
04:52 61.2 °F /  16.2 °C 59.4 °F /  15.2 °C 30 in /  1015.5 hPa Calm     94 % 0 in /  0.0 mm
04:57 61.2 °F /  16.2 °C 59.4 °F /  15.2 °C 30 in /  1015.5 hPa Calm     94 % 0 in /  0.0 mm
05:02 61.3 °F /  16.3 °C 59.5 °F /  15.3 °C 30 in /  1015.5 hPa Calm     94 % 0 in /  0.0 mm
05:12 61.3 °F /  16.3 °C 59.5 °F /  15.3 °C 30 in /  1015.5 hPa Calm     94 % 0 in /  0.0 mm
05:17 61.2 °F /  16.2 °C 59.4 °F /  15.2 °C 30 in /  1015.5 hPa Calm     94 % 0 in /  0.0 mm
05:22 61.2 °F /  16.2 °C 59.4 °F /  15.2 °C 30 in /  1015.5 hPa Calm     94 % 0 in /  0.0 mm
05:27 61 °F /  16.1 °C 59.2 °F /  15.1 °C 30 in /  1015.5 hPa Calm     94 % 0 in /  0.0 mm
05:32 61 °F /  16.1 °C 59.2 °F /  15.1 °C 30 in /  1015.5 hPa Calm     94 % 0 in /  0.0 mm
05:37 61 °F /  16.1 °C 59.2 °F /  15.1 °C 30 in /  1015.5 hPa Calm     94 % 0 in /  0.0 mm
05:42 61.2 °F /  16.2 °C 59.4 °F /  15.2 °C 30 in /  1015.5 hPa Calm     94 % 0 in /  0.0 mm
05:47 61.2 °F /  16.2 °C 59.4 °F /  15.2 °C 30 in /  1015.5 hPa Calm     94 % 0 in /  0.0 mm
05:52 61 °F /  16.1 °C 59.2 °F /  15.1 °C 30 in /  1015.5 hPa Calm     94 % 0 in /  0.0 mm
05:57 60.6 °F /  15.9 °C 58.8 °F /  14.9 °C 30 in /  1015.5 hPa Calm     94 % 0 in /  0.0 mm
06:02 60.6 °F /  15.9 °C 58.8 °F /  14.9 °C 30 in /  1015.5 hPa Calm     94 % 0 in /  0.0 mm
06:12 60.6 °F /  15.9 °C 58.8 °F /  14.9 °C 30 in /  1015.5 hPa Calm     94 % 0 in /  0.0 mm
06:17 60.4 °F /  15.8 °C 58.6 °F /  14.8 °C 30 in /  1015.5 hPa Calm     94 % 0 in /  0.0 mm
06:22 60.1 °F /  15.6 °C 58.3 °F /  14.6 °C 30 in /  1015.5 hPa Calm     94 % 0 in /  0.0 mm
06:27 60.1 °F /  15.6 °C 58.3 °F /  14.6 °C 30 in /  1015.5 hPa Calm     94 % 0 in /  0.0 mm
06:32 60.1 °F /  15.6 °C 58.6 °F /  14.8 °C 30 in /  1015.1 hPa Calm     95 % 0 in /  0.0 mm
06:37 60.3 °F /  15.7 °C 58.8 °F /  14.9 °C 30 in /  1015.5 hPa Calm     95 % 0 in /  0.0 mm
06:42 60.4 °F /  15.8 °C 59 °F /  15.0 °C 30 in /  1015.5 hPa Calm     95 % 0 in /  0.0 mm
06:47 61 °F /  16.1 °C 59.5 °F /  15.3 °C 30 in /  1015.1 hPa Calm     95 % 0 in /  0.0 mm
06:52 61.7 °F /  16.5 °C 60.3 °F /  15.7 °C 30 in /  1015.5 hPa Calm     95 % 0 in /  0.0 mm
07:02 62.4 °F /  16.9 °C 60.6 °F /  15.9 °C 30 in /  1015.5 hPa Calm     94 % 0 in /  0.0 mm
07:07 63.1 °F /  17.3 °C 61.3 °F /  16.3 °C 30 in /  1015.5 hPa Calm     94 % 0 in /  0.0 mm
07:12 63.3 °F /  17.4 °C 61.3 °F /  16.3 °C 30 in /  1015.5 hPa Calm     93 % 0 in /  0.0 mm
07:17 63 °F /  17.2 °C 60.6 °F /  15.9 °C 30 in /  1015.5 hPa Calm     92 % 0 in /  0.0 mm
07:22 63 °F /  17.2 °C 61 °F /  16.1 °C 30 in /  1015.8 hPa Calm     93 % 0 in /  0.0 mm
07:27 62.8 °F /  17.1 °C 60.4 °F /  15.8 °C 30 in /  1015.8 hPa Calm   3 mph /  4.8 km/h 92 % 0 in /  0.0 mm
07:32 62.8 °F /  17.1 °C 60.8 °F /  16.0 °C 30 in /  1015.8 hPa Calm   3 mph /  4.8 km/h 93 % 0 in /  0.0 mm
07:42 62.8 °F /  17.1 °C 60.8 °F /  16.0 °C 30 in /  1015.8 hPa Calm   3 mph /  4.8 km/h 93 % 0 in /  0.0 mm
07:47 62.8 °F /  17.1 °C 60.8 °F /  16.0 °C 30 in /  1015.8 hPa Calm   2 mph /  3.2 km/h 93 % 0 in /  0.0 mm
07:52 62.8 °F /  17.1 °C 60.8 °F /  16.0 °C 30 in /  1016.1 hPa Calm   2 mph /  3.2 km/h 93 % 0 in /  0.0 mm
07:57 62.8 °F /  17.1 °C 60.8 °F /  16.0 °C 30 in /  1016.1 hPa Calm   2 mph /  3.2 km/h 93 % 0 in /  0.0 mm
08:02 62.8 °F /  17.1 °C 60.8 °F /  16.0 °C 30 in /  1016.1 hPa Calm   1 mph /  1.6 km/h 93 % 0 in /  0.0 mm
08:07 63 °F /  17.2 °C 61 °F /  16.1 °C 30 in /  1016.1 hPa Calm   1 mph /  1.6 km/h 93 % 0 in /  0.0 mm
08:12 63 °F /  17.2 °C 61 °F /  16.1 °C 30 in /  1015.8 hPa Calm   1 mph /  1.6 km/h 93 % 0 in /  0.0 mm
08:17 63 °F /  17.2 °C 61 °F /  16.1 °C 30 in /  1016.1 hPa WNW 1 mph /  1.6 km/h 2 mph /  3.2 km/h 93 % 0 in /  0.0 mm
08:22 63.1 °F /  17.3 °C 61.3 °F /  16.3 °C 30 in /  1016.1 hPa SSW 2 mph /  3.2 km/h 2 mph /  3.2 km/h 94 % 0 in /  0.0 mm
08:27 63.3 °F /  17.4 °C 61.5 °F /  16.4 °C 30 in /  1016.1 hPa SSW 3 mph /  4.8 km/h 5 mph /  8.0 km/h 94 % 0 in /  0.0 mm
08:32 63.3 °F /  17.4 °C 61.3 °F /  16.3 °C 30 in /  1016.1 hPa SW 3 mph /  4.8 km/h 7 mph /  11.3 km/h 93 % 0 in /  0.0 mm
08:37 63.3 °F /  17.4 °C 61.5 °F /  16.4 °C 30 in /  1016.1 hPa SW 1 mph /  1.6 km/h 7 mph /  11.3 km/h 94 % 0 in /  0.0 mm
08:42 63.3 °F /  17.4 °C 61.5 °F /  16.4 °C 30 in /  1016.1 hPa Calm   6 mph /  9.7 km/h 94 % 0 in /  0.0 mm
08:47 63.3 °F /  17.4 °C 61.5 °F /  16.4 °C 30 in /  1016.1 hPa Calm   6 mph /  9.7 km/h 94 % 0 in /  0.0 mm
08:52 63.7 °F /  17.6 °C 61.9 °F /  16.6 °C 30 in /  1016.1 hPa Calm   3 mph /  4.8 km/h 94 % 0 in /  0.0 mm
08:57 63.9 °F /  17.7 °C 62.1 °F /  16.7 °C 30 in /  1016.1 hPa Calm   2 mph /  3.2 km/h 94 % 0 in /  0.0 mm
09:02 64.2 °F /  17.9 °C 62.4 °F /  16.9 °C 30 in /  1016.1 hPa Calm   2 mph /  3.2 km/h 94 % 0 in /  0.0 mm
09:07 64.6 °F /  18.1 °C 62.8 °F /  17.1 °C 30 in /  1016.1 hPa NNW 1 mph /  1.6 km/h 3 mph /  4.8 km/h 94 % 0 in /  0.0 mm
09:12 64.8 °F /  18.2 °C 62.6 °F /  17.0 °C 30 in /  1016.1 hPa WNW 2 mph /  3.2 km/h 5 mph /  8.0 km/h 93 % 0 in /  0.0 mm
09:17 64.9 °F /  18.3 °C 62.8 °F /  17.1 °C 30 in /  1016.1 hPa West 2 mph /  3.2 km/h 5 mph /  8.0 km/h 93 % 0 in /  0.0 mm
09:22 65.1 °F /  18.4 °C 63 °F /  17.2 °C 30 in /  1016.1 hPa WSW 2 mph /  3.2 km/h 5 mph /  8.0 km/h 93 % 0 in /  0.0 mm
09:27 65.1 °F /  18.4 °C 63 °F /  17.2 °C 30 in /  1016.5 hPa West 1 mph /  1.6 km/h 5 mph /  8.0 km/h 93 % 0 in /  0.0 mm
09:32 65.5 °F /  18.6 °C 63.3 °F /  17.4 °C 30 in /  1016.5 hPa SW 1 mph /  1.6 km/h 3 mph /  4.8 km/h 93 % 0 in /  0.0 mm
09:37 65.5 °F /  18.6 °C 63.1 °F /  17.3 °C 30 in /  1016.5 hPa SSW 2 mph /  3.2 km/h 3 mph /  4.8 km/h 92 % 0 in /  0.0 mm
09:42 65.5 °F /  18.6 °C 63.1 °F /  17.3 °C 30 in /  1016.5 hPa SSW 4 mph /  6.4 km/h 5 mph /  8.0 km/h 92 % 0 in /  0.0 mm
09:47 65.5 °F /  18.6 °C 63.1 °F /  17.3 °C 30 in /  1016.5 hPa SSW 3 mph /  4.8 km/h 5 mph /  8.0 km/h 92 % 0 in /  0.0 mm
09:52 65.5 °F /  18.6 °C 63.1 °F /  17.3 °C 30 in /  1016.5 hPa SSW 2 mph /  3.2 km/h 5 mph /  8.0 km/h 92 % 0 in /  0.0 mm
09:57 65.5 °F /  18.6 °C 63.1 °F /  17.3 °C 30 in /  1016.5 hPa SSW 2 mph /  3.2 km/h 5 mph /  8.0 km/h 92 % 0 in /  0.0 mm
10:02 65.1 °F /  18.4 °C 62.4 °F /  16.9 °C 30 in /  1016.8 hPa SW 6 mph /  9.7 km/h 6 mph /  9.7 km/h 91 % 0 in /  0.0 mm
10:07 64.8 °F /  18.2 °C 62.4 °F /  16.9 °C 30 in /  1016.8 hPa SW 8 mph /  12.9 km/h 8 mph /  12.9 km/h 92 % 0 in /  0.0 mm
10:12 64.2 °F /  17.9 °C 61.5 °F /  16.4 °C 30 in /  1016.8 hPa SW 5 mph /  8.0 km/h 8 mph /  12.9 km/h 91 % 0 in /  0.0 mm
10:17 64 °F /  17.8 °C 61.7 °F /  16.5 °C 30 in /  1016.8 hPa SSW 2 mph /  3.2 km/h 9 mph /  14.5 km/h 92 % 0 in /  0.0 mm
10:22 63.7 °F /  17.6 °C 61 °F /  16.1 °C 30 in /  1016.8 hPa SW 9 mph /  14.5 km/h 9 mph /  14.5 km/h 91 % 0 in /  0.0 mm
10:27 63.5 °F /  17.5 °C 60.8 °F /  16.0 °C 30 in /  1016.8 hPa SW 8 mph /  12.9 km/h 11 mph /  17.7 km/h 91 % 0 in /  0.0 mm
10:32 63.3 °F /  17.4 °C 60.3 °F /  15.7 °C 30 in /  1017.2 hPa SSE 8 mph /  12.9 km/h 11 mph /  17.7 km/h 90 % 0 in /  0.0 mm
10:37 63.3 °F /  17.4 °C 60.3 °F /  15.7 °C 30 in /  1016.8 hPa SSW 5 mph /  8.0 km/h 12 mph /  19.3 km/h 90 % 0 in /  0.0 mm
10:42 63.5 °F /  17.5 °C 60.4 °F /  15.8 °C 30 in /  1017.2 hPa SSE 4 mph /  6.4 km/h 12 mph /  19.3 km/h 90 % 0 in /  0.0 mm
10:47 63.7 °F /  17.6 °C 60.6 °F /  15.9 °C 30 in /  1016.8 hPa SW 3 mph /  4.8 km/h 12 mph /  19.3 km/h 90 % 0 in /  0.0 mm
10:52 63.9 °F /  17.7 °C 60.6 °F /  15.9 °C 30 in /  1016.8 hPa SSW 3 mph /  4.8 km/h 9 mph /  14.5 km/h 89 % 0 in /  0.0 mm
10:57 63.9 °F /  17.7 °C 60.6 °F /  15.9 °C 30 in /  1016.8 hPa WSW 4 mph /  6.4 km/h 8 mph /  12.9 km/h 89 % 0 in /  0.0 mm
11:02 64 °F /  17.8 °C 60.8 °F /  16.0 °C 30 in /  1016.8 hPa WSW 3 mph /  4.8 km/h 7 mph /  11.3 km/h 89 % 0 in /  0.0 mm
11:07 64.2 °F /  17.9 °C 61.2 °F /  16.2 °C 30 in /  1016.8 hPa SW 2 mph /  3.2 km/h 7 mph /  11.3 km/h 90 % 0 in /  0.0 mm
11:12 64.4 °F /  18.0 °C 61.3 °F /  16.3 °C 30 in /  1016.8 hPa SSW 1 mph /  1.6 km/h 6 mph /  9.7 km/h 90 % 0 in /  0.0 mm
11:17 64.6 °F /  18.1 °C 61.5 °F /  16.4 °C 30 in /  1016.8 hPa WSW 3 mph /  4.8 km/h 6 mph /  9.7 km/h 90 % 0 in /  0.0 mm
11:22 64.9 °F /  18.3 °C 61.7 °F /  16.5 °C 30 in /  1016.8 hPa SSW 2 mph /  3.2 km/h 5 mph /  8.0 km/h 89 % 0 in /  0.0 mm
11:27 65.1 °F /  18.4 °C 61.2 °F /  16.2 °C 30 in /  1016.8 hPa SSW 3 mph /  4.8 km/h 5 mph /  8.0 km/h 87 % 0 in /  0.0 mm
11:32 65.5 °F /  18.6 °C 61.2 °F /  16.2 °C 30 in /  1016.8 hPa WSW 4 mph /  6.4 km/h 6 mph /  9.7 km/h 86 % 0 in /  0.0 mm
11:37 65.5 °F /  18.6 °C 61.2 °F /  16.2 °C 30 in /  1016.8 hPa SW 3 mph /  4.8 km/h 6 mph /  9.7 km/h 86 % 0 in /  0.0 mm
11:42 65.5 °F /  18.6 °C 60.8 °F /  16.0 °C 30 in /  1016.8 hPa SSW 3 mph /  4.8 km/h 6 mph /  9.7 km/h 85 % 0 in /  0.0 mm
11:47 65.7 °F /  18.7 °C 61 °F /  16.1 °C 30 in /  1016.8 hPa SW 4 mph /  6.4 km/h 7 mph /  11.3 km/h 85 % 0 in /  0.0 mm
11:52 65.8 °F /  18.8 °C 61.2 °F /  16.2 °C 30 in /  1016.8 hPa SSW 2 mph /  3.2 km/h 8 mph /  12.9 km/h 85 % 0 in /  0.0 mm
12:02 66 °F /  18.9 °C 60.4 °F /  15.8 °C 30 in /  1016.8 hPa West 4 mph /  6.4 km/h 7 mph /  11.3 km/h 82 % 0 in /  0.0 mm
12:07 66 °F /  18.9 °C 60.6 °F /  15.9 °C 30 in /  1016.8 hPa SW 4 mph /  6.4 km/h 7 mph /  11.3 km/h 83 % 0 in /  0.0 mm
12:12 66 °F /  18.9 °C 60.6 °F /  15.9 °C 30 in /  1016.8 hPa SW 2 mph /  3.2 km/h 7 mph /  11.3 km/h 83 % 0 in /  0.0 mm
12:17 66.4 °F /  19.1 °C 60.1 °F /  15.6 °C 30 in /  1016.8 hPa SW 6 mph /  9.7 km/h 8 mph /  12.9 km/h 80 % 0 in /  0.0 mm
12:22 66.2 °F /  19.0 °C 59.9 °F /  15.5 °C 30 in /  1016.8 hPa SSW 2 mph /  3.2 km/h 8 mph /  12.9 km/h 80 % 0 in /  0.0 mm
12:32 66.4 °F /  19.1 °C 60.1 °F /  15.6 °C 30 in /  1016.8 hPa SW 5 mph /  8.0 km/h 7 mph /  11.3 km/h 80 % 0 in /  0.0 mm
12:42 66 °F /  18.9 °C 60.1 °F /  15.6 °C 30 in /  1016.5 hPa SW 2 mph /  3.2 km/h 7 mph /  11.3 km/h 81 % 0 in /  0.0 mm
12:47 66 °F /  18.9 °C 60.4 °F /  15.8 °C 30 in /  1016.5 hPa SW 2 mph /  3.2 km/h 7 mph /  11.3 km/h 82 % 0 in /  0.0 mm
12:52 66 °F /  18.9 °C 60.6 °F /  15.9 °C 30 in /  1016.5 hPa SSW 4 mph /  6.4 km/h 7 mph /  11.3 km/h 83 % 0 in /  0.0 mm
12:57 65.8 °F /  18.8 °C 60.6 °F /  15.9 °C 30 in /  1016.5 hPa SSW 3 mph /  4.8 km/h 6 mph /  9.7 km/h 83 % 0 in /  0.0 mm
13:02 65.8 °F /  18.8 °C 60.6 °F /  15.9 °C 30 in /  1016.1 hPa WSW 4 mph /  6.4 km/h 6 mph /  9.7 km/h 83 % 0.01 in /  0.3 mm
13:12 66.4 °F /  19.1 °C 61.3 °F /  16.3 °C 30 in /  1016.1 hPa SSW 4 mph /  6.4 km/h 7 mph /  11.3 km/h 84 % 0.01 in /  0.3 mm
13:17 66.6 °F /  19.2 °C 61.2 °F /  16.2 °C 30 in /  1016.1 hPa SSW 1 mph /  1.6 km/h 6 mph /  9.7 km/h 83 % 0.01 in /  0.3 mm
13:22 66.9 °F /  19.4 °C 61.9 °F /  16.6 °C 30 in /  1016.1 hPa SW 2 mph /  3.2 km/h 7 mph /  11.3 km/h 84 % 0.01 in /  0.3 mm
13:27 67.3 °F /  19.6 °C 61.9 °F /  16.6 °C 30 in /  1016.1 hPa SSW 5 mph /  8.0 km/h 7 mph /  11.3 km/h 83 % 0.01 in /  0.3 mm
13:32 67.5 °F /  19.7 °C 61.7 °F /  16.5 °C 30 in /  1015.8 hPa WSW 5 mph /  8.0 km/h 8 mph /  12.9 km/h 82 % 0.01 in /  0.3 mm
13:37 67.6 °F /  19.8 °C 61.5 °F /  16.4 °C 30 in /  1015.8 hPa SSW 5 mph /  8.0 km/h 8 mph /  12.9 km/h 81 % 0.01 in /  0.3 mm
13:42 67.6 °F /  19.8 °C 61.5 °F /  16.4 °C 30 in /  1015.8 hPa SW 5 mph /  8.0 km/h 8 mph /  12.9 km/h 81 % 0.01 in /  0.3 mm
13:52 67.8 °F /  19.9 °C 61.7 °F /  16.5 °C 30 in /  1015.8 hPa WSW 4 mph /  6.4 km/h 9 mph /  14.5 km/h 81 % 0.01 in /  0.3 mm
13:57 67.8 °F /  19.9 °C 61.3 °F /  16.3 °C 30 in /  1015.8 hPa WSW 2 mph /  3.2 km/h 9 mph /  14.5 km/h 80 % 0.01 in /  0.3 mm
14:02 68.2 °F /  20.1 °C 61.7 °F /  16.5 °C 30 in /  1015.8 hPa SW 5 mph /  8.0 km/h 9 mph /  14.5 km/h 80 % 0 in /  0.0 mm
14:07 68 °F /  20.0 °C 61.5 °F /  16.4 °C 30 in /  1015.8 hPa WSW 6 mph /  9.7 km/h 9 mph /  14.5 km/h 80 % 0 in /  0.0 mm
14:12 67.8 °F /  19.9 °C 61 °F /  16.1 °C 30 in /  1015.8 hPa West 5 mph /  8.0 km/h 9 mph /  14.5 km/h 79 % 0 in /  0.0 mm
14:22 68.2 °F /  20.1 °C 61.7 °F /  16.5 °C 30 in /  1015.5 hPa WSW 4 mph /  6.4 km/h 9 mph /  14.5 km/h 80 % 0 in /  0.0 mm
14:27 68.4 °F /  20.2 °C 61.5 °F /  16.4 °C 30 in /  1015.5 hPa SW 5 mph /  8.0 km/h 9 mph /  14.5 km/h 79 % 0 in /  0.0 mm
14:32 68.4 °F /  20.2 °C 61.5 °F /  16.4 °C 30 in /  1015.5 hPa West 5 mph /  8.0 km/h 9 mph /  14.5 km/h 79 % 0 in /  0.0 mm
14:37 68.4 °F /  20.2 °C 61.9 °F /  16.6 °C 30 in /  1015.5 hPa WNW 5 mph /  8.0 km/h 9 mph /  14.5 km/h 80 % 0 in /  0.0 mm
14:42 68.4 °F /  20.2 °C 61.5 °F /  16.4 °C 30 in /  1015.5 hPa WSW 3 mph /  4.8 km/h 11 mph /  17.7 km/h 79 % 0 in /  0.0 mm
14:47 68.4 °F /  20.2 °C 60.1 °F /  15.6 °C 30 in /  1015.5 hPa WSW 4 mph /  6.4 km/h 11 mph /  17.7 km/h 75 % 0 in /  0.0 mm
14:52 68.4 °F /  20.2 °C 60.4 °F /  15.8 °C 30 in /  1015.5 hPa WSW 3 mph /  4.8 km/h 11 mph /  17.7 km/h 76 % 0 in /  0.0 mm
15:02 68.4 °F /  20.2 °C 60.8 °F /  16.0 °C 30 in /  1015.1 hPa WNW 5 mph /  8.0 km/h 8 mph /  12.9 km/h 77 % 0 in /  0.0 mm
15:07 68.5 °F /  20.3 °C 61.3 °F /  16.3 °C 30 in /  1015.1 hPa Calm   7 mph /  11.3 km/h 78 % 0 in /  0.0 mm
15:12 68.9 °F /  20.5 °C 61.3 °F /  16.3 °C 30 in /  1015.1 hPa WSW 2 mph /  3.2 km/h 7 mph /  11.3 km/h 77 % 0 in /  0.0 mm
15:17 69.1 °F /  20.6 °C 61.9 °F /  16.6 °C 30 in /  1015.1 hPa WNW 3 mph /  4.8 km/h 7 mph /  11.3 km/h 78 % 0 in /  0.0 mm
15:22 69.3 °F /  20.7 °C 61.7 °F /  16.5 °C 30 in /  1015.1 hPa WNW 2 mph /  3.2 km/h 4 mph /  6.4 km/h 77 % 0 in /  0.0 mm
15:32 69.4 °F /  20.8 °C 61.2 °F /  16.2 °C 30 in /  1015.1 hPa West 4 mph /  6.4 km/h 4 mph /  6.4 km/h 75 % 0 in /  0.0 mm
15:37 69.3 °F /  20.7 °C 61.3 °F /  16.3 °C 30 in /  1015.1 hPa WNW 3 mph /  4.8 km/h 7 mph /  11.3 km/h 76 % 0 in /  0.0 mm
15:42 69.3 °F /  20.7 °C 61.7 °F /  16.5 °C 30 in /  1015.1 hPa WNW 5 mph /  8.0 km/h 7 mph /  11.3 km/h 77 % 0 in /  0.0 mm
15:47 69.1 °F /  20.6 °C 61.9 °F /  16.6 °C 30 in /  1015.1 hPa WNW 5 mph /  8.0 km/h 7 mph /  11.3 km/h 78 % 0 in /  0.0 mm
15:52 68.7 °F /  20.4 °C 61.9 °F /  16.6 °C 30 in /  1015.1 hPa WNW 9 mph /  14.5 km/h 9 mph /  14.5 km/h 79 % 0 in /  0.0 mm
15:57 68.5 °F /  20.3 °C 61.7 °F /  16.5 °C 30 in /  1015.1 hPa West 2 mph /  3.2 km/h 10 mph /  16.1 km/h 79 % 0 in /  0.0 mm
16:02 68.5 °F /  20.3 °C 61.7 °F /  16.5 °C 30 in /  1015.1 hPa West 1 mph /  1.6 km/h 10 mph /  16.1 km/h 79 % 0 in /  0.0 mm
16:07 68.5 °F /  20.3 °C 61.7 °F /  16.5 °C 30 in /  1015.1 hPa WNW 6 mph /  9.7 km/h 10 mph /  16.1 km/h 79 % 0 in /  0.0 mm
16:12 68.4 °F /  20.2 °C 61.2 °F /  16.2 °C 30 in /  1015.1 hPa NW 4 mph /  6.4 km/h 7 mph /  11.3 km/h 78 % 0 in /  0.0 mm
16:17 68.2 °F /  20.1 °C 61 °F /  16.1 °C 30 in /  1015.1 hPa WNW 3 mph /  4.8 km/h 7 mph /  11.3 km/h 78 % 0 in /  0.0 mm
16:22 67.8 °F /  19.9 °C 61.3 °F /  16.3 °C 30 in /  1015.1 hPa WNW 2 mph /  3.2 km/h 11 mph /  17.7 km/h 80 % 0 in /  0.0 mm
16:27 67.5 °F /  19.7 °C 61.2 °F /  16.2 °C 30 in /  1015.1 hPa West 5 mph /  8.0 km/h 11 mph /  17.7 km/h 80 % 0 in /  0.0 mm
16:32 67.1 °F /  19.5 °C 60.8 °F /  16.0 °C 30 in /  1015.1 hPa NNW 3 mph /  4.8 km/h 11 mph /  17.7 km/h 80 % 0 in /  0.0 mm
16:37 66.7 °F /  19.3 °C 60.4 °F /  15.8 °C 30 in /  1015.1 hPa West 5 mph /  8.0 km/h 10 mph /  16.1 km/h 80 % 0 in /  0.0 mm
16:47 66.2 °F /  19.0 °C 60.8 °F /  16.0 °C 30 in /  1015.1 hPa WNW 5 mph /  8.0 km/h 10 mph /  16.1 km/h 83 % 0 in /  0.0 mm
16:52 65.8 °F /  18.8 °C 60.8 °F /  16.0 °C 30 in /  1015.1 hPa WNW 5 mph /  8.0 km/h 9 mph /  14.5 km/h 84 % 0.01 in /  0.3 mm
16:57 65.5 °F /  18.6 °C 61.2 °F /  16.2 °C 30 in /  1015.1 hPa WNW 2 mph /  3.2 km/h 9 mph /  14.5 km/h 86 % 0.02 in /  0.5 mm
17:02 65.1 °F /  18.4 °C 61.2 °F /  16.2 °C 30 in /  1015.1 hPa WNW 6 mph /  9.7 km/h 9 mph /  14.5 km/h 87 % 0.02 in /  0.5 mm
17:07 64.9 °F /  18.3 °C 61 °F /  16.1 °C 30 in /  1015.1 hPa West 4 mph /  6.4 km/h 8 mph /  12.9 km/h 87 % 0.02 in /  0.5 mm
17:12 64.8 °F /  18.2 °C 61.2 °F /  16.2 °C 30 in /  1015.1 hPa West 2 mph /  3.2 km/h 8 mph /  12.9 km/h 88 % 0.02 in /  0.5 mm
17:17 64.6 °F /  18.1 °C 61 °F /  16.1 °C 30 in /  1015.1 hPa WSW 7 mph /  11.3 km/h 10 mph /  16.1 km/h 88 % 0.02 in /  0.5 mm
17:22 64.6 °F /  18.1 °C 61.3 °F /  16.3 °C 30 in /  1015.1 hPa NW 4 mph /  6.4 km/h 10 mph /  16.1 km/h 89 % 0.02 in /  0.5 mm
17:27 64.6 °F /  18.1 °C 61.3 °F /  16.3 °C 30 in /  1015.1 hPa NW 4 mph /  6.4 km/h 10 mph /  16.1 km/h 89 % 0.02 in /  0.5 mm
17:37 64 °F /  17.8 °C 61 °F /  16.1 °C 30 in /  1015.1 hPa NW 6 mph /  9.7 km/h 9 mph /  14.5 km/h 90 % 0.05 in /  1.3 mm
17:42 63.9 °F /  17.7 °C 60.8 °F /  16.0 °C 30 in /  1015.1 hPa NNE 5 mph /  8.0 km/h 10 mph /  16.1 km/h 90 % 0.05 in /  1.3 mm
17:52 63.3 °F /  17.4 °C 60.6 °F /  15.9 °C 30 in /  1015.5 hPa NW 3 mph /  4.8 km/h 10 mph /  16.1 km/h 91 % 0.04 in /  1.0 mm
17:57 63.1 °F /  17.3 °C 60.4 °F /  15.8 °C 30 in /  1015.5 hPa NW 6 mph /  9.7 km/h 10 mph /  16.1 km/h 91 % 0.04 in /  1.0 mm
18:02 62.6 °F /  17.0 °C 59.5 °F /  15.3 °C 30 in /  1015.5 hPa NW 7 mph /  11.3 km/h 11 mph /  17.7 km/h 90 % 0.04 in /  1.0 mm
18:12 61.9 °F /  16.6 °C 59 °F /  15.0 °C 30 in /  1015.5 hPa NNW 6 mph /  9.7 km/h 15 mph /  24.1 km/h 90 % 0.05 in /  1.3 mm
18:17 61.3 °F /  16.3 °C 58.5 °F /  14.7 °C 30 in /  1015.5 hPa WNW 7 mph /  11.3 km/h 15 mph /  24.1 km/h 90 % 0.05 in /  1.3 mm
18:22 61 °F /  16.1 °C 58.1 °F /  14.5 °C 30 in /  1015.5 hPa NW 3 mph /  4.8 km/h 13 mph /  20.9 km/h 90 % 0.06 in /  1.5 mm
18:32 60.6 °F /  15.9 °C 57.9 °F /  14.4 °C 30 in /  1015.5 hPa NW 5 mph /  8.0 km/h 11 mph /  17.7 km/h 91 % 0.05 in /  1.3 mm
18:42 60.6 °F /  15.9 °C 57.9 °F /  14.4 °C 30 in /  1015.8 hPa WNW 4 mph /  6.4 km/h 11 mph /  17.7 km/h 91 % 0.05 in /  1.3 mm
18:47 60.6 °F /  15.9 °C 57.9 °F /  14.4 °C 30 in /  1015.5 hPa NW 3 mph /  4.8 km/h 10 mph /  16.1 km/h 91 % 0.04 in /  1.0 mm
18:52 60.6 °F /  15.9 °C 57.9 °F /  14.4 °C 30 in /  1015.5 hPa Calm   10 mph /  16.1 km/h 91 % 0.04 in /  1.0 mm
18:57 60.6 °F /  15.9 °C 57.9 °F /  14.4 °C 30 in /  1015.5 hPa WNW 2 mph /  3.2 km/h 8 mph /  12.9 km/h 91 % 0.04 in /  1.0 mm
19:02 60.6 °F /  15.9 °C 57.9 °F /  14.4 °C 30 in /  1015.5 hPa Calm   8 mph /  12.9 km/h 91 % 0.03 in /  0.8 mm
19:07 60.6 °F /  15.9 °C 58.3 °F /  14.6 °C 30 in /  1015.5 hPa NW 2 mph /  3.2 km/h 8 mph /  12.9 km/h 92 % 0.03 in /  0.8 mm
19:12 60.6 °F /  15.9 °C 58.3 °F /  14.6 °C 30 in /  1015.8 hPa Calm   5 mph /  8.0 km/h 92 % 0.03 in /  0.8 mm
19:17 60.6 °F /  15.9 °C 57.9 °F /  14.4 °C 30 in /  1015.8 hPa Calm   4 mph /  6.4 km/h 91 % 0.02 in /  0.5 mm
19:27 60.6 °F /  15.9 °C 57.9 °F /  14.4 °C 30 in /  1015.8 hPa Calm   2 mph /  3.2 km/h 91 % 0.02 in /  0.5 mm
19:32 60.6 °F /  15.9 °C 58.3 °F /  14.6 °C 30 in /  1015.8 hPa Calm   2 mph /  3.2 km/h 92 % 0.02 in /  0.5 mm
19:42 60.6 °F /  15.9 °C 58.3 °F /  14.6 °C 30 in /  1015.8 hPa Calm   2 mph /  3.2 km/h 92 % 0.02 in /  0.5 mm
19:47 60.6 °F /  15.9 °C 58.3 °F /  14.6 °C 30 in /  1015.8 hPa Calm   2 mph /  3.2 km/h 92 % 0.02 in /  0.5 mm
19:52 60.4 °F /  15.8 °C 58.1 °F /  14.5 °C 30 in /  1015.8 hPa Calm   2 mph /  3.2 km/h 92 % 0.02 in /  0.5 mm
19:57 60.4 °F /  15.8 °C 58.1 °F /  14.5 °C 30 in /  1015.8 hPa Calm   1 mph /  1.6 km/h 92 % 0.02 in /  0.5 mm
20:02 60.4 °F /  15.8 °C 58.1 °F /  14.5 °C 30 in /  1015.8 hPa Calm   1 mph /  1.6 km/h 92 % 0.02 in /  0.5 mm
20:12 60.4 °F /  15.8 °C 58.5 °F /  14.7 °C 30 in /  1015.8 hPa Calm     93 % 0.02 in /  0.5 mm
20:17 60.4 °F /  15.8 °C 58.5 °F /  14.7 °C 30 in /  1015.8 hPa Calm     93 % 0.02 in /  0.5 mm
20:22 60.4 °F /  15.8 °C 58.5 °F /  14.7 °C 30 in /  1015.8 hPa Calm     93 % 0.02 in /  0.5 mm
20:27 60.4 °F /  15.8 °C 58.6 °F /  14.8 °C 30 in /  1015.8 hPa Calm     94 % 0.02 in /  0.5 mm
20:32 60.6 °F /  15.9 °C 58.8 °F /  14.9 °C 30 in /  1016.1 hPa Calm     94 % 0.02 in /  0.5 mm
20:37 60.6 °F /  15.9 °C 58.8 °F /  14.9 °C 30 in /  1016.1 hPa Calm     94 % 0.02 in /  0.5 mm
20:42 60.8 °F /  16.0 °C 59.4 °F /  15.2 °C 30 in /  1016.1 hPa WNW 3 mph /  4.8 km/h 3 mph /  4.8 km/h 95 % 0.04 in /  1.0 mm
20:47 61 °F /  16.1 °C 59.2 °F /  15.1 °C 30 in /  1016.1 hPa NNE 4 mph /  6.4 km/h 9 mph /  14.5 km/h 94 % 0.1 in /  2.5 mm
20:57 60.6 °F /  15.9 °C 58.8 °F /  14.9 °C 30 in /  1016.1 hPa NW 1 mph /  1.6 km/h 7 mph /  11.3 km/h 94 % 0.16 in /  4.1 mm
21:02 60.6 °F /  15.9 °C 58.8 °F /  14.9 °C 30 in /  1016.1 hPa NW 2 mph /  3.2 km/h 4 mph /  6.4 km/h 94 % 0.17 in /  4.3 mm
21:12 60.4 °F /  15.8 °C 59 °F /  15.0 °C 30 in /  1016.1 hPa Calm   3 mph /  4.8 km/h 95 % 0.17 in /  4.3 mm
21:17 60.4 °F /  15.8 °C 59 °F /  15.0 °C 30 in /  1016.1 hPa Calm   3 mph /  4.8 km/h 95 % 0.18 in /  4.6 mm
21:22 60.3 °F /  15.7 °C 58.8 °F /  14.9 °C 30 in /  1016.1 hPa Calm   3 mph /  4.8 km/h 95 % 0.19 in /  4.8 mm
21:27 60.3 °F /  15.7 °C 58.8 °F /  14.9 °C 30 in /  1016.1 hPa Calm   1 mph /  1.6 km/h 95 % 0.19 in /  4.8 mm
21:32 60.3 °F /  15.7 °C 58.8 °F /  14.9 °C 30 in /  1016.1 hPa Calm   1 mph /  1.6 km/h 95 % 0.18 in /  4.6 mm
21:37 60.3 °F /  15.7 °C 58.8 °F /  14.9 °C 30 in /  1016.5 hPa Calm   1 mph /  1.6 km/h 95 % 0.19 in /  4.8 mm
21:42 60.3 °F /  15.7 °C 58.8 °F /  14.9 °C 30 in /  1016.1 hPa Calm     95 % 0.16 in /  4.1 mm
21:47 60.3 °F /  15.7 °C 58.8 °F /  14.9 °C 30 in /  1016.1 hPa Calm     95 % 0.1 in /  2.5 mm
21:52 60.3 °F /  15.7 °C 58.8 °F /  14.9 °C 30 in /  1016.5 hPa Calm     95 % 0.06 in /  1.5 mm
21:57 60.4 °F /  15.8 °C 59 °F /  15.0 °C 30 in /  1016.5 hPa Calm     95 % 0.05 in /  1.3 mm
22:02 60.3 °F /  15.7 °C 58.8 °F /  14.9 °C 30 in /  1016.5 hPa Calm     95 % 0.04 in /  1.0 mm
22:07 60.4 °F /  15.8 °C 59.4 °F /  15.2 °C 30 in /  1016.8 hPa Calm     96 % 0.04 in /  1.0 mm
22:12 60.4 °F /  15.8 °C 59.4 °F /  15.2 °C 30 in /  1016.8 hPa Calm     96 % 0.04 in /  1.0 mm
22:17 60.4 °F /  15.8 °C 59.4 °F /  15.2 °C 30 in /  1016.8 hPa WNW 2 mph /  3.2 km/h 3 mph /  4.8 km/h 96 % 0.03 in /  0.8 mm
22:22 60.4 °F /  15.8 °C 59 °F /  15.0 °C 30 in /  1017.2 hPa WNW 4 mph /  6.4 km/h 5 mph /  8.0 km/h 95 % 0.02 in /  0.5 mm
22:27 60.3 °F /  15.7 °C 58.8 °F /  14.9 °C 30 in /  1017.2 hPa NNW 2 mph /  3.2 km/h 5 mph /  8.0 km/h 95 % 0.02 in /  0.5 mm
22:37 60.1 °F /  15.6 °C 58.6 °F /  14.8 °C 30 in /  1017.2 hPa WNW 5 mph /  8.0 km/h 5 mph /  8.0 km/h 95 % 0.02 in /  0.5 mm
22:42 60.1 °F /  15.6 °C 58.6 °F /  14.8 °C 30 in /  1017.2 hPa WNW 3 mph /  4.8 km/h 5 mph /  8.0 km/h 95 % 0.02 in /  0.5 mm
22:47 59.9 °F /  15.5 °C 58.5 °F /  14.7 °C 30.1 in /  1017.5 hPa WNW 6 mph /  9.7 km/h 6 mph /  9.7 km/h 95 % 0.02 in /  0.5 mm
22:52 59.7 °F /  15.4 °C 58.3 °F /  14.6 °C 30.1 in /  1017.5 hPa NW 1 mph /  1.6 km/h 7 mph /  11.3 km/h 95 % 0.02 in /  0.5 mm
22:57 59.7 °F /  15.4 °C 58.3 °F /  14.6 °C 30.1 in /  1017.5 hPa NW 3 mph /  4.8 km/h 7 mph /  11.3 km/h 95 % 0.01 in /  0.3 mm
23:02 59.5 °F /  15.3 °C 58.1 °F /  14.5 °C 30.1 in /  1017.5 hPa WNW 5 mph /  8.0 km/h 7 mph /  11.3 km/h 95 % 0.01 in /  0.3 mm
23:12 59.4 °F /  15.2 °C 57.9 °F /  14.4 °C 30.1 in /  1017.5 hPa NNW 2 mph /  3.2 km/h 7 mph /  11.3 km/h 95 % 0 in /  0.0 mm
23:17 59.4 °F /  15.2 °C 57.9 °F /  14.4 °C 30.1 in /  1017.8 hPa WNW 1 mph /  1.6 km/h 8 mph /  12.9 km/h 95 % 0 in /  0.0 mm
23:22 59.2 °F /  15.1 °C 57.7 °F /  14.3 °C 30.1 in /  1017.8 hPa WNW 4 mph /  6.4 km/h 8 mph /  12.9 km/h 95 % 0 in /  0.0 mm
23:27 59 °F /  15.0 °C 57.6 °F /  14.2 °C 30.1 in /  1017.8 hPa NW 6 mph /  9.7 km/h 8 mph /  12.9 km/h 95 % 0 in /  0.0 mm
23:37 58.6 °F /  14.8 °C 57.2 °F /  14.0 °C 30.1 in /  1017.8 hPa WNW 4 mph /  6.4 km/h 9 mph /  14.5 km/h 95 % 0.01 in /  0.3 mm
23:47 58.3 °F /  14.6 °C 56.5 °F /  13.6 °C 30.1 in /  1017.8 hPa NW 2 mph /  3.2 km/h 9 mph /  14.5 km/h 94 % 0.01 in /  0.3 mm
23:52 57.9 °F /  14.4 °C 56.1 °F /  13.4 °C 30.1 in /  1017.8 hPa North 4 mph /  6.4 km/h 9 mph /  14.5 km/h 94 % 0.02 in /  0.5 mm
23:57 57.7 °F /  14.3 °C 55.9 °F /  13.3 °C 30.1 in /  1018.2 hPa North 3 mph /  4.8 km/h 9 mph /  14.5 km/h 94 % 0.02 in /  0.5 mm
Meteo18
Compliments of Weather Underground - 4 mb

Script developed by  Jim McMurry - jmcmurry@mwt.net Adapted for the template by  Wim van der Kuil - Leuven-Template.eu

You find our weather info also at:

European Weather Network

Weather Underground

Equipment we use:

Weather-station
Davis Vue

Weather-program
Meteohub

Weather-server
Raspberry PI 2 B+

Provider
1 and 1

Davis Vue

Meteohub

Raspberry PI 2 B+

1 and 1